createdAt,value
2023-03-17T00:01:55.860Z,75.22
2023-03-17T00:04:24.966Z,74.70
2023-03-17T00:06:52.891Z,75.30
2023-03-17T00:09:20.857Z,74.95
2023-03-17T00:11:47.873Z,74.21
2023-03-17T00:14:14.958Z,74.57
2023-03-17T00:16:49.799Z,74.50
2023-03-17T00:19:21.670Z,75.05
2023-03-17T00:21:49.726Z,74.83
2023-03-17T00:24:17.143Z,74.88
2023-03-17T00:26:43.899Z,74.72
2023-03-17T00:29:10.988Z,75.63
2023-03-17T00:31:39.522Z,74.98
2023-03-17T00:34:07.791Z,75.77
2023-03-17T00:36:35.528Z,75.21
2023-03-17T00:39:02.121Z,74.95
2023-03-17T00:41:29.478Z,75.53
2023-03-17T00:43:56.178Z,75.05
2023-03-17T00:46:35.709Z,75.49
2023-03-17T00:49:12.274Z,75.44
2023-03-17T00:51:39.359Z,75.36
2023-03-17T00:54:06.824Z,75.80
2023-03-17T00:56:33.483Z,75.78
2023-03-17T00:59:00.149Z,75.79
2023-03-17T01:01:26.824Z,75.96
2023-03-17T01:03:53.432Z,75.28
2023-03-17T01:06:20.129Z,75.97
2023-03-17T01:08:47.395Z,75.85
2023-03-17T01:11:18.728Z,75.38
2023-03-17T01:13:46.490Z,75.31
2023-03-17T01:16:13.939Z,75.96
2023-03-17T01:18:40.786Z,75.56
2023-03-17T01:21:07.851Z,75.60
2023-03-17T01:23:34.448Z,76.26
2023-03-17T01:26:01.570Z,76.00
2023-03-17T01:28:28.974Z,75.70
2023-03-17T01:30:56.691Z,76.39
2023-03-17T01:33:23.394Z,76.13
2023-03-17T01:35:51.346Z,75.82
2023-03-17T01:38:18.811Z,75.68
2023-03-17T01:40:49.700Z,76.17
2023-03-17T01:43:25.887Z,75.91
2023-03-17T01:46:14.815Z,75.11
2023-03-17T01:48:47.418Z,75.60
2023-03-17T01:51:24.742Z,75.96
2023-03-17T01:53:53.575Z,75.04
2023-03-17T01:56:21.596Z,76.15
2023-03-17T01:58:53.743Z,75.86
2023-03-17T02:01:29.106Z,75.32
2023-03-17T02:03:56.984Z,75.02
2023-03-17T02:06:25.619Z,76.06
2023-03-17T02:08:52.197Z,75.34
2023-03-17T02:11:21.006Z,76.08
2023-03-17T02:13:47.788Z,75.50
2023-03-17T02:16:18.121Z,75.94
2023-03-17T02:18:44.995Z,76.02
2023-03-17T02:21:35.329Z,76.30
2023-03-17T02:24:08.460Z,76.01
2023-03-17T02:26:36.650Z,75.59
2023-03-17T02:29:05.993Z,75.59
2023-03-17T02:31:33.459Z,75.88
2023-03-17T02:34:00.453Z,75.97
2023-03-17T02:36:27.532Z,76.44
2023-03-17T02:38:54.642Z,76.23
2023-03-17T02:41:21.774Z,75.88
2023-03-17T02:43:48.405Z,76.12
2023-03-17T02:46:15.117Z,75.92
2023-03-17T02:48:42.897Z,75.86
2023-03-17T02:51:09.536Z,76.26
2023-03-17T02:53:36.616Z,75.57
2023-03-17T02:56:03.740Z,75.56
2023-03-17T02:58:30.372Z,75.93
2023-03-17T03:00:56.920Z,75.76
2023-03-17T03:03:23.773Z,76.17
2023-03-17T03:05:50.921Z,76.10
2023-03-17T03:08:17.624Z,76.39
2023-03-17T03:10:44.264Z,75.56
2023-03-17T03:13:11.673Z,76.00
2023-03-17T03:15:41.312Z,75.62
2023-03-17T03:18:08.194Z,75.59
2023-03-17T03:20:34.786Z,77.06
2023-03-17T03:23:01.353Z,75.76
2023-03-17T03:25:27.969Z,76.24
2023-03-17T03:27:54.530Z,76.34
2023-03-17T03:30:21.163Z,76.44
2023-03-17T03:32:47.787Z,76.69
2023-03-17T03:35:14.903Z,76.02
2023-03-17T03:37:41.568Z,76.44
2023-03-17T03:40:09.112Z,75.57
2023-03-17T03:42:35.647Z,75.94
2023-03-17T03:45:02.210Z,75.90
2023-03-17T03:47:28.800Z,76.03
2023-03-17T03:49:55.481Z,75.37
2023-03-17T03:52:21.988Z,76.31
2023-03-17T03:54:48.596Z,76.04
2023-03-17T03:57:15.391Z,76.18
2023-03-17T03:59:42.053Z,75.94
2023-03-17T04:02:09.691Z,75.50
2023-03-17T04:04:36.955Z,75.43
2023-03-17T04:07:03.568Z,74.64
2023-03-17T04:09:30.238Z,75.31
2023-03-17T04:11:56.745Z,76.29
2023-03-17T04:14:23.279Z,75.66
2023-03-17T04:16:49.785Z,75.34
2023-03-17T04:19:16.430Z,75.83
2023-03-17T04:21:43.102Z,74.99
2023-03-17T04:24:09.750Z,76.25
2023-03-17T04:26:36.996Z,75.13
2023-03-17T04:29:03.533Z,76.13
2023-03-17T04:31:30.720Z,75.03
2023-03-17T04:33:57.233Z,75.10
2023-03-17T04:36:24.268Z,75.58
2023-03-17T04:38:50.830Z,75.87
2023-03-17T04:41:17.415Z,75.93
2023-03-17T04:43:44.808Z,74.94
2023-03-17T04:46:11.687Z,75.87
2023-03-17T04:48:38.630Z,75.42
2023-03-17T04:51:06.065Z,74.06
2023-03-17T04:53:32.698Z,74.80
2023-03-17T04:55:59.282Z,75.40
2023-03-17T04:58:30.718Z,74.85
2023-03-17T05:00:58.280Z,74.81
2023-03-17T05:03:27.567Z,74.03
2023-03-17T05:05:55.491Z,74.68
2023-03-17T05:08:22.298Z,74.36
2023-03-17T05:10:48.882Z,73.99
2023-03-17T05:13:15.972Z,74.67
2023-03-17T05:15:50.558Z,73.85
2023-03-17T05:18:18.392Z,74.88
2023-03-17T05:20:45.520Z,74.09
2023-03-17T05:23:12.287Z,73.61
2023-03-17T05:25:40.530Z,75.50
2023-03-17T05:28:07.736Z,74.65
2023-03-17T05:30:38.159Z,74.88
2023-03-17T05:33:05.188Z,74.90
2023-03-17T05:35:32.265Z,74.03
2023-03-17T05:37:58.983Z,74.83
2023-03-17T05:40:26.362Z,74.34
2023-03-17T05:42:52.962Z,74.34
2023-03-17T05:45:19.503Z,74.33
2023-03-17T05:47:46.080Z,74.51
2023-03-17T05:50:12.938Z,74.71
2023-03-17T05:52:40.001Z,75.06
2023-03-17T05:55:07.869Z,74.64
2023-03-17T05:57:34.725Z,75.99
2023-03-17T06:00:01.518Z,74.69
2023-03-17T06:02:28.211Z,74.69
2023-03-17T06:04:54.769Z,74.79
2023-03-17T06:07:21.400Z,73.76
2023-03-17T06:09:47.935Z,74.50
2023-03-17T06:12:14.632Z,75.29
2023-03-17T06:14:41.210Z,74.71
2023-03-17T06:17:08.225Z,74.74
2023-03-17T06:19:34.871Z,74.74
2023-03-17T06:22:01.423Z,75.02
2023-03-17T06:24:27.953Z,75.03
2023-03-17T06:26:56.022Z,74.45
2023-03-17T06:29:22.701Z,74.47
2023-03-17T06:31:51.136Z,74.17
2023-03-17T06:34:19.025Z,74.61
2023-03-17T06:36:51.638Z,74.38
2023-03-17T06:39:18.163Z,74.79
2023-03-17T06:41:44.884Z,74.60
2023-03-17T06:44:11.408Z,75.33
2023-03-17T06:46:37.987Z,75.29
2023-03-17T06:49:04.710Z,75.61
2023-03-17T06:51:32.632Z,75.20
2023-03-17T06:53:59.279Z,74.08
2023-03-17T06:56:30.227Z,75.21
2023-03-17T06:58:57.562Z,75.05
2023-03-17T07:01:25.185Z,75.29
2023-03-17T07:03:51.782Z,74.28
2023-03-17T07:06:18.400Z,74.68
2023-03-17T07:08:46.315Z,74.09
2023-03-17T07:11:12.937Z,73.89
2023-03-17T07:13:40.799Z,73.64
2023-03-17T07:16:08.155Z,74.16
2023-03-17T07:18:34.776Z,74.64
2023-03-17T07:21:02.205Z,74.20
2023-03-17T07:23:29.792Z,74.02
2023-03-17T07:25:57.407Z,74.12
2023-03-17T07:28:24.325Z,72.55
2023-03-17T07:30:51.863Z,73.74
2023-03-17T07:33:21.118Z,74.63
2023-03-17T07:35:48.821Z,73.01
2023-03-17T07:38:17.763Z,72.83
2023-03-17T07:40:47.666Z,73.15
2023-03-17T07:43:17.727Z,74.77
2023-03-17T07:45:45.721Z,71.95
2023-03-17T07:48:12.995Z,71.52
2023-03-17T07:50:39.775Z,72.15
2023-03-17T07:53:06.303Z,72.61
2023-03-17T07:55:33.509Z,71.12
2023-03-17T07:58:00.237Z,72.18
2023-03-17T08:00:29.082Z,70.50
2023-03-17T08:03:09.342Z,70.82
2023-03-17T08:05:37.530Z,71.26
2023-03-17T08:08:06.626Z,71.01
2023-03-17T08:10:33.808Z,70.23
2023-03-17T08:13:00.779Z,71.15
2023-03-17T08:15:27.525Z,70.34
2023-03-17T08:17:54.138Z,70.64
2023-03-17T08:20:21.693Z,70.76
2023-03-17T08:22:48.291Z,68.78
2023-03-17T08:25:14.931Z,69.25
2023-03-17T08:27:42.216Z,67.11
2023-03-17T08:30:09.513Z,65.24
2023-03-17T08:32:36.549Z,66.30
2023-03-17T08:35:03.159Z,65.93
2023-03-17T08:37:29.701Z,63.99
2023-03-17T08:39:56.218Z,64.14
2023-03-17T08:42:23.424Z,65.45
2023-03-17T08:44:50.146Z,64.26
2023-03-17T08:47:17.549Z,63.05
2023-03-17T08:49:44.165Z,64.70
2023-03-17T08:52:11.125Z,62.85
2023-03-17T08:54:38.169Z,64.28
2023-03-17T08:57:04.777Z,58.85
2023-03-17T08:59:31.615Z,61.57
2023-03-17T09:01:58.224Z,57.49
2023-03-17T09:04:25.908Z,57.73
2023-03-17T09:07:02.802Z,58.60
2023-03-17T09:09:31.218Z,60.60
2023-03-17T09:11:57.839Z,59.60
2023-03-17T09:14:25.059Z,59.08
2023-03-17T09:16:52.198Z,61.25
2023-03-17T09:19:18.835Z,60.12
2023-03-17T09:21:45.675Z,58.43
2023-03-17T09:24:12.479Z,59.63
2023-03-17T09:26:39.091Z,58.66
2023-03-17T09:29:07.223Z,59.80
2023-03-17T09:31:36.328Z,57.60
2023-03-17T09:34:06.353Z,58.08
2023-03-17T09:36:33.138Z,57.63
2023-03-17T09:39:02.980Z,56.71
2023-03-17T09:42:08.114Z,57.93
2023-03-17T09:44:55.719Z,58.46
2023-03-17T09:47:48.759Z,57.40
2023-03-17T09:50:24.001Z,58.99
2023-03-17T09:52:55.255Z,57.65
2023-03-17T09:55:32.782Z,58.46
2023-03-17T09:58:00.897Z,57.36
2023-03-17T10:00:31.040Z,56.73
2023-03-17T10:02:59.064Z,53.42
2023-03-17T10:05:30.108Z,57.09
2023-03-17T10:08:30.043Z,58.23
2023-03-17T10:11:24.104Z,56.10
2023-03-17T10:14:05.705Z,58.50
2023-03-17T10:16:51.353Z,55.42
2023-03-17T10:19:32.650Z,57.31
2023-03-17T10:22:10.351Z,56.93
2023-03-17T10:24:45.978Z,56.77
2023-03-17T10:27:16.746Z,57.64
2023-03-17T10:29:43.795Z,57.50
2023-03-17T10:32:13.378Z,58.34
2023-03-17T10:34:41.737Z,57.28
2023-03-17T10:37:15.051Z,59.02
2023-03-17T10:39:48.295Z,57.30
2023-03-17T10:42:23.210Z,58.30
2023-03-17T10:45:13.263Z,56.24
2023-03-17T10:47:44.641Z,56.49
2023-03-17T10:50:26.209Z,58.10
2023-03-17T10:53:00.813Z,57.71
2023-03-17T10:55:42.533Z,58.58
2023-03-17T10:58:22.640Z,58.58
2023-03-17T11:01:05.785Z,59.17
2023-03-17T11:03:38.834Z,60.88
2023-03-17T11:06:13.052Z,56.15
2023-03-17T11:08:46.226Z,59.80
2023-03-17T11:11:28.150Z,57.81
2023-03-17T11:14:15.344Z,58.54
2023-03-17T11:16:57.729Z,59.12
2023-03-17T11:19:48.594Z,58.90
2023-03-17T11:22:22.957Z,58.53
2023-03-17T11:25:11.336Z,58.71
2023-03-17T11:27:56.673Z,58.47
2023-03-17T11:30:59.852Z,58.77
2023-03-17T11:33:36.112Z,60.69
2023-03-17T11:36:44.617Z,58.79
2023-03-17T11:39:15.581Z,60.64
2023-03-17T11:42:08.258Z,59.62
2023-03-17T11:45:06.754Z,59.76
2023-03-17T11:47:54.831Z,59.07
2023-03-17T11:50:55.364Z,62.12
2023-03-17T11:53:43.466Z,57.60
2023-03-17T11:56:20.711Z,59.84
2023-03-17T11:58:56.336Z,61.10
2023-03-17T12:01:45.703Z,59.20
2023-03-17T12:04:34.875Z,59.17
2023-03-17T12:07:25.737Z,60.68
2023-03-17T12:10:28.728Z,58.75
2023-03-17T12:12:59.620Z,60.07
2023-03-17T12:15:34.653Z,59.56
2023-03-17T12:18:10.846Z,60.59
2023-03-17T12:20:48.799Z,59.99
2023-03-17T12:23:48.162Z,60.35
2023-03-17T12:26:21.105Z,60.01
2023-03-17T12:29:05.590Z,59.78
2023-03-17T12:31:39.011Z,60.23
2023-03-17T12:34:20.361Z,59.88
2023-03-17T12:36:49.548Z,59.81
2023-03-17T12:39:29.047Z,59.61
2023-03-17T12:41:59.638Z,58.61
2023-03-17T12:44:43.304Z,59.35
2023-03-17T12:47:39.553Z,60.38
2023-03-17T12:50:12.857Z,60.46
2023-03-17T12:53:17.124Z,60.50
2023-03-17T12:55:50.555Z,60.83
2023-03-17T12:58:27.105Z,60.33
2023-03-17T13:01:17.384Z,60.51
2023-03-17T13:04:16.759Z,61.15
2023-03-17T13:07:00.118Z,59.25
2023-03-17T13:09:32.409Z,61.27
2023-03-17T13:12:04.848Z,62.39
2023-03-17T13:14:46.938Z,60.59
2023-03-17T13:17:16.838Z,59.94
2023-03-17T13:20:08.104Z,62.45
2023-03-17T13:22:37.524Z,60.27
2023-03-17T13:25:34.862Z,61.32
2023-03-17T13:28:13.594Z,60.74
2023-03-17T13:30:40.188Z,60.70
2023-03-17T13:33:09.799Z,61.18
2023-03-17T13:35:47.625Z,61.91
2023-03-17T13:38:37.633Z,61.93
2023-03-17T13:41:06.866Z,62.18
2023-03-17T13:43:36.468Z,60.92
2023-03-17T13:46:32.467Z,60.28
2023-03-17T13:49:13.070Z,62.41
2023-03-17T13:51:52.789Z,61.59
2023-03-17T13:54:28.400Z,62.90
2023-03-17T13:56:59.490Z,62.30
2023-03-17T13:59:55.638Z,62.61
2023-03-17T14:02:28.925Z,61.28
2023-03-17T14:05:00.449Z,60.74
2023-03-17T14:07:41.871Z,61.23
2023-03-17T14:10:19.688Z,62.35
2023-03-17T14:13:16.852Z,61.87
2023-03-17T14:16:12.263Z,61.71
2023-03-17T14:18:44.071Z,61.90
2023-03-17T14:21:31.047Z,62.32
2023-03-17T14:24:01.387Z,61.90
2023-03-17T14:26:31.198Z,60.76
2023-03-17T14:29:04.707Z,60.65
2023-03-17T14:31:31.637Z,61.16
2023-03-17T14:34:00.855Z,61.31
2023-03-17T14:36:28.914Z,63.31
2023-03-17T14:38:57.083Z,61.95
2023-03-17T14:41:28.832Z,62.25
2023-03-17T14:44:00.705Z,60.35
2023-03-17T14:46:36.972Z,60.51
2023-03-17T14:49:15.852Z,61.60
2023-03-17T14:51:43.009Z,61.62
2023-03-17T14:54:28.506Z,63.50
2023-03-17T14:57:02.254Z,60.83
2023-03-17T14:59:35.994Z,60.67
2023-03-17T15:02:32.237Z,61.46
2023-03-17T15:05:12.994Z,60.74
2023-03-17T15:07:42.391Z,62.76
2023-03-17T15:10:19.221Z,60.88
2023-03-17T15:12:48.437Z,60.60
2023-03-17T15:15:32.548Z,61.62
2023-03-17T15:18:03.859Z,62.34
2023-03-17T15:20:33.720Z,61.77
2023-03-17T15:23:22.149Z,61.19
2023-03-17T15:25:55.569Z,61.53
2023-03-17T15:28:29.697Z,61.91
2023-03-17T15:31:11.298Z,60.84
2023-03-17T15:33:41.137Z,62.59
2023-03-17T15:36:29.328Z,60.77
2023-03-17T15:38:57.702Z,60.78
2023-03-17T15:41:24.324Z,60.82
2023-03-17T15:43:50.866Z,61.39
2023-03-17T15:46:27.776Z,62.73
2023-03-17T15:48:54.903Z,60.85
2023-03-17T15:51:21.982Z,60.48
2023-03-17T15:53:48.641Z,61.05
2023-03-17T15:56:21.395Z,61.23
2023-03-17T15:58:52.433Z,62.58
2023-03-17T16:01:20.610Z,61.11
2023-03-17T16:03:48.640Z,60.70
2023-03-17T16:06:21.534Z,60.34
2023-03-17T16:09:05.469Z,60.91
2023-03-17T16:11:32.383Z,61.00
2023-03-17T16:14:00.058Z,60.64
2023-03-17T16:16:32.004Z,61.02
2023-03-17T16:18:58.968Z,61.29
2023-03-17T16:21:25.763Z,60.68
2023-03-17T16:23:52.619Z,60.46
2023-03-17T16:26:19.218Z,60.67
2023-03-17T16:28:47.655Z,60.51
2023-03-17T16:31:22.139Z,60.80
2023-03-17T16:33:51.399Z,61.09
2023-03-17T16:36:21.756Z,60.78
2023-03-17T16:38:49.551Z,61.31
2023-03-17T16:41:20.450Z,61.12
2023-03-17T16:43:51.327Z,61.57
2023-03-17T16:46:20.702Z,62.55
2023-03-17T16:48:49.489Z,62.34
2023-03-17T16:51:16.981Z,61.34
2023-03-17T16:53:43.894Z,63.71
2023-03-17T16:56:17.301Z,61.72
2023-03-17T16:58:45.794Z,62.63
2023-03-17T17:01:16.650Z,63.35
2023-03-17T17:03:45.259Z,63.21
2023-03-17T17:06:14.550Z,64.15
2023-03-17T17:08:43.031Z,64.33
2023-03-17T17:11:13.124Z,64.41
2023-03-17T17:13:41.376Z,64.66
2023-03-17T17:16:20.886Z,64.39
2023-03-17T17:18:47.555Z,64.98
2023-03-17T17:21:14.549Z,65.87
2023-03-17T17:23:41.260Z,65.61
2023-03-17T17:26:07.807Z,66.08
2023-03-17T17:28:34.514Z,66.33
2023-03-17T17:31:01.092Z,66.14
2023-03-17T17:33:27.663Z,66.73
2023-03-17T17:35:54.506Z,66.92
2023-03-17T17:38:28.862Z,66.44
2023-03-17T17:40:58.012Z,67.07
2023-03-17T17:43:25.851Z,66.77
2023-03-17T17:45:53.184Z,67.58
2023-03-17T17:48:26.286Z,67.18
2023-03-17T17:50:55.280Z,67.91
2023-03-17T17:53:21.892Z,67.21
2023-03-17T17:55:49.961Z,68.01
2023-03-17T17:58:19.334Z,68.27
2023-03-17T18:00:46.810Z,68.30
2023-03-17T18:03:13.382Z,67.66
2023-03-17T18:05:40.443Z,68.25
2023-03-17T18:08:08.373Z,68.35
2023-03-17T18:10:35.130Z,68.70
2023-03-17T18:13:01.761Z,67.75
2023-03-17T18:15:28.885Z,67.83
2023-03-17T18:17:56.364Z,68.28
2023-03-17T18:20:25.258Z,67.80
2023-03-17T18:22:52.876Z,68.35
2023-03-17T18:25:20.205Z,68.63
2023-03-17T18:27:47.834Z,68.88
2023-03-17T18:30:23.372Z,69.02
2023-03-17T18:32:54.902Z,69.02
2023-03-17T18:35:27.010Z,68.97
2023-03-17T18:37:56.356Z,69.32
2023-03-17T18:40:23.413Z,69.23
2023-03-17T18:42:49.979Z,69.30
2023-03-17T18:45:16.992Z,69.46
2023-03-17T18:47:43.646Z,69.69
2023-03-17T18:50:13.752Z,69.86
2023-03-17T18:52:42.828Z,70.43
2023-03-17T18:55:12.005Z,70.17
2023-03-17T18:57:44.640Z,70.47
2023-03-17T19:00:13.883Z,70.35
2023-03-17T19:02:40.509Z,69.93
2023-03-17T19:05:07.552Z,70.47
2023-03-17T19:07:37.954Z,70.15
2023-03-17T19:10:08.388Z,70.15
2023-03-17T19:12:35.349Z,70.50
2023-03-17T19:15:01.933Z,70.89
2023-03-17T19:17:28.676Z,70.07
2023-03-17T19:19:55.373Z,70.54
2023-03-17T19:22:22.175Z,70.06
2023-03-17T19:24:50.194Z,70.03
2023-03-17T19:27:17.688Z,70.30
2023-03-17T19:29:44.443Z,70.08
2023-03-17T19:32:11.098Z,70.57
2023-03-17T19:34:37.739Z,70.14
2023-03-17T19:37:04.385Z,69.29
2023-03-17T19:39:32.100Z,69.33
2023-03-17T19:41:59.156Z,69.33
2023-03-17T19:44:26.389Z,69.65
2023-03-17T19:46:53.090Z,70.00
2023-03-17T19:49:21.043Z,69.33
2023-03-17T19:51:48.960Z,69.19
2023-03-17T19:54:16.658Z,69.42
2023-03-17T19:56:43.255Z,68.93
2023-03-17T19:59:10.218Z,69.36
2023-03-17T20:01:38.174Z,69.93
2023-03-17T20:04:06.834Z,69.37
2023-03-17T20:06:34.732Z,69.95
2023-03-17T20:09:04.206Z,69.14
2023-03-17T20:11:33.892Z,69.35
2023-03-17T20:14:02.358Z,70.15
2023-03-17T20:16:35.987Z,70.21
2023-03-17T20:19:03.821Z,69.39
2023-03-17T20:21:31.188Z,68.98
2023-03-17T20:23:57.954Z,70.30
2023-03-17T20:26:24.586Z,70.01
2023-03-17T20:28:51.586Z,69.79
2023-03-17T20:31:18.612Z,70.25
2023-03-17T20:33:45.280Z,70.01
2023-03-17T20:36:12.925Z,70.30
2023-03-17T20:38:39.898Z,69.45
2023-03-17T20:41:08.197Z,69.66
2023-03-17T20:43:37.238Z,69.08
2023-03-17T20:46:08.943Z,69.93
2023-03-17T20:48:37.079Z,69.52
2023-03-17T20:51:05.581Z,69.57
2023-03-17T20:53:33.217Z,69.79
2023-03-17T20:56:00.254Z,70.36
2023-03-17T20:58:27.755Z,69.62
2023-03-17T21:00:55.113Z,69.70
2023-03-17T21:03:21.739Z,70.82
2023-03-17T21:05:48.297Z,69.40
2023-03-17T21:08:14.871Z,69.50
2023-03-17T21:10:41.736Z,69.73
2023-03-17T21:13:08.910Z,70.70
2023-03-17T21:15:37.063Z,69.47
2023-03-17T21:18:04.044Z,69.68
2023-03-17T21:20:31.045Z,70.01
2023-03-17T21:22:57.988Z,70.62
2023-03-17T21:25:24.588Z,70.31
2023-03-17T21:27:52.265Z,69.79
2023-03-17T21:30:18.890Z,70.54
2023-03-17T21:32:45.520Z,70.22
2023-03-17T21:35:12.222Z,70.66
2023-03-17T21:37:38.853Z,70.33
2023-03-17T21:40:06.711Z,70.64
2023-03-17T21:42:33.808Z,70.43
2023-03-17T21:45:00.562Z,70.69
2023-03-17T21:47:27.313Z,70.62
2023-03-17T21:49:53.930Z,70.92
2023-03-17T21:52:21.606Z,70.75
2023-03-17T21:54:48.809Z,71.06
2023-03-17T21:57:16.592Z,70.85
2023-03-17T21:59:43.268Z,71.14
2023-03-17T22:02:13.672Z,71.24
2023-03-17T22:04:41.685Z,70.80
2023-03-17T22:07:08.445Z,71.06
2023-03-17T22:09:35.035Z,71.78
2023-03-17T22:12:01.711Z,70.75
2023-03-17T22:14:28.431Z,71.48
2023-03-17T22:16:55.168Z,71.42
2023-03-17T22:19:22.501Z,71.24
2023-03-17T22:21:50.369Z,71.56
2023-03-17T22:24:17.517Z,71.54
2023-03-17T22:26:44.274Z,71.68
2023-03-17T22:29:10.862Z,72.25
2023-03-17T22:31:37.511Z,72.09
2023-03-17T22:34:04.312Z,72.18
2023-03-17T22:36:31.166Z,72.23
2023-03-17T22:38:58.862Z,72.41
2023-03-17T22:41:29.529Z,72.72
2023-03-17T22:44:04.230Z,72.85
2023-03-17T22:46:30.795Z,72.87
2023-03-17T22:48:57.448Z,72.45
2023-03-17T22:51:26.754Z,72.97
2023-03-17T22:53:55.676Z,73.35
2023-03-17T22:56:22.902Z,72.77
2023-03-17T22:58:49.547Z,72.79
2023-03-17T23:01:18.160Z,73.41
2023-03-17T23:03:46.961Z,73.29
2023-03-17T23:06:14.871Z,73.27
2023-03-17T23:08:46.446Z,73.86
2023-03-17T23:11:19.382Z,73.69
2023-03-17T23:13:48.224Z,73.78
2023-03-17T23:16:18.212Z,73.85
2023-03-17T23:18:46.783Z,74.22
2023-03-17T23:21:30.463Z,74.15
2023-03-17T23:23:57.797Z,73.92
2023-03-17T23:26:24.347Z,74.41
2023-03-17T23:28:51.842Z,74.17
2023-03-17T23:31:19.497Z,74.51
2023-03-17T23:33:47.229Z,75.03
2023-03-17T23:36:15.077Z,74.45
2023-03-17T23:38:42.732Z,74.92
2023-03-17T23:41:10.313Z,74.75
2023-03-17T23:43:39.093Z,75.58
2023-03-17T23:46:05.741Z,75.09
2023-03-17T23:48:36.461Z,75.76
2023-03-17T23:51:03.392Z,75.87
2023-03-17T23:53:30.092Z,76.18
2023-03-17T23:55:56.784Z,75.92
2023-03-17T23:58:23.508Z,76.29
